Home > Products > Valid Products > MTR

000
SAUS45 KGGW 042249
MTRJDN
METAR KJDN 042248Z AUTO VRB04KT 28/04 A2987 RMK AO1 SLP111 T02830044





000
SAUS45 KGGW 042149
MTRJDN
METAR KJDN 042148Z AUTO 19009KT 28/05 A2989 RMK AO1 SLP116 T02830050





000
SAUS45 KGGW 042049
MTRJDN
METAR KJDN 042048Z AUTO 20011G19KT 28/04 A2991 RMK AO1 SLP122
T02830044 58018





000
SAUS45 KGGW 041949
MTRJDN
METAR KJDN 041948Z AUTO 21015G21KT 28/04 A2993 RMK AO1 SLP129
T02780044





000
SAUS45 KGGW 041849
MTRJDN
METAR KJDN 041848Z AUTO 20010KT 27/05 A2995 RMK AO1 SLP134 T02670050





000
SAUS45 KGGW 041849
MTRJDN
METAR KJDN 041848Z AUTO 20010KT 27/05 A2995 RMK AO1 SLP134 T02670050





000
SAUS45 KGGW 041749
MTRJDN
METAR KJDN 041748Z AUTO 18012KT 26/06 A2997 RMK AO1 SLP141 T02610061
10261 20044 56017





000
SAUS45 KGGW 041749
MTRJDN
METAR KJDN 041748Z AUTO 18012KT 26/06 A2997 RMK AO1 SLP141 T02610061
10261 20044 56017





000
SAUS45 KGGW 041649
MTRJDN
METAR KJDN 041648Z AUTO 18011KT 24/07 A2998 RMK AO1 SLP146 T02390067





000
SAUS45 KGGW 041549
MTRJDN
METAR KJDN 041548Z AUTO 18010KT 22/07 A3000 RMK AO1 SLP152 T02220072





000
SAUS45 KGGW 041449
MTRJDN
METAR KJDN 041448Z AUTO 00000KT 16/09 A3002 RMK AO1 SLP162 T01610089
58006





000
SAUS45 KGGW 041349
MTRJDN
METAR KJDN 041348Z AUTO 00000KT 12/08 A3003 RMK AO1 SLP167 T01170078





000
SAUS45 KGGW 041249
MTRJDN
METAR KJDN 041248Z AUTO 00000KT 08/06 A3003 RMK AO1 SLP168 T00780061





000
SAUS45 KGGW 041249
MTRJDN
METAR KJDN 041248Z AUTO 00000KT 08/06 A3003 RMK AO1 SLP168 T00780061





000
SAUS45 KGGW 041149
MTRJDN
METAR KJDN 041148Z AUTO 00000KT 04/03 A3004 RMK AO1 SLP171 T00440033
10111 20044 58005





000
SAUS45 KGGW 041049
MTRJDN
METAR KJDN 041048Z AUTO 00000KT 06/05 A3004 RMK AO1 SLP172 T00560050





000
SAUS45 KGGW 041049
MTRJDN
METAR KJDN 041048Z AUTO 00000KT 06/05 A3004 RMK AO1 SLP172 T00560050





000
SAUS45 KGGW 040949
MTRJDN
METAR KJDN 040948Z AUTO 00000KT 06/05 A3005 RMK AO1 SLP175 T00610050





000
SAUS45 KGGW 040949
MTRJDN
METAR KJDN 040948Z AUTO 00000KT 06/05 A3005 RMK AO1 SLP175 T00610050





000
SAUS45 KGGW 040849
MTRJDN
METAR KJDN 040848Z AUTO 00000KT 07/05 A3005 RMK AO1 SLP175 T00670050
58000





000
SAUS45 KGGW 040849
MTRJDN
METAR KJDN 040848Z AUTO 00000KT 07/05 A3005 RMK AO1 SLP175 T00670050
58000





000
SAUS45 KGGW 040749
MTRJDN
METAR KJDN 040748Z AUTO 00000KT 08/06 A3006 RMK AO1 SLP176 T00780056





000
SAUS45 KGGW 040649
MTRJDN
METAR KJDN 040648Z AUTO 00000KT 09/07 A3006 RMK AO1 SLP175 T00940067
402610067





000
SAUS45 KGGW 040649
MTRJDN
METAR KJDN 040648Z AUTO 00000KT 09/07 A3006 RMK AO1 SLP175 T00940067
402610067





000
SAUS45 KGGW 040549
MTRJDN
METAR KJDN 040548Z AUTO 00000KT 11/06 A3005 RMK AO1 SLP173 T01060061
10256 20100 50001





000
SAUS45 KGGW 040449
MTRJDN
METAR KJDN 040448Z AUTO 16003KT 12/06 A3006 RMK AO1 SLP174 T01220061





000
SAUS45 KGGW 040349
MTRJDN
METAR KJDN 040348Z AUTO 00000KT 14/07 A3006 RMK AO1 SLP175 T01440067





000
SAUS45 KGGW 040249
MTRJDN
METAR KJDN 040248Z AUTO 10003KT 17/06 A3005 RMK AO1 SLP173 T01720061
55003





000
SAUS45 KGGW 040149
MTRJDN
METAR KJDN 040148Z AUTO 08004KT 22/06 A3005 RMK AO1 SLP171 T02170056





000
SAUS45 KGGW 040049
MTRJDN
METAR KJDN 040048Z AUTO 10004KT 24/02 A3005 RMK AO1 SLP174 T02440022





000
SAUS45 KGGW 040049
MTRJDN
METAR KJDN 040048Z AUTO 10004KT 24/02 A3005 RMK AO1 SLP174 T02440022





000
SAUS45 KGGW 032349
MTRJDN
METAR KJDN 032348Z AUTO 08005KT 26/03 A3006 RMK AO1 SLP177 T02560028
10261 20233 56007





000
SAUS45 KGGW 032349
MTRJDN
METAR KJDN 032348Z AUTO 08005KT 26/03 A3006 RMK AO1 SLP177 T02560028
10261 20233 56007





000
SAUS45 KGGW 032249
MTRJDN
METAR KJDN 032248Z AUTO VRB03KT 26/03 A3007 RMK AO1 SLP179 T02560033





000
SAUS45 KGGW 032249
MTRJDN
METAR KJDN 032248Z AUTO VRB03KT 26/03 A3007 RMK AO1 SLP179 T02560033





000
SAUS45 KGGW 032149
MTRJDN
METAR KJDN 032148Z AUTO VRB04KT 26/03 A3008 RMK AO1 SLP181 T02610033





000
SAUS45 KGGW 032049
MTRJDN
METAR KJDN 032048Z AUTO 36008KT 26/03 A3009 RMK AO1 SLP184 T02560028
56006





000
SAUS45 KGGW 031949
MTRJDN
METAR KJDN 031948Z AUTO 36008KT 25/03 A3009 RMK AO1 SLP186 T02500033





000
SAUS45 KGGW 031849
MTRJDN
METAR KJDN 031848Z AUTO 01007KT 24/04 A3010 RMK AO1 SLP189 T02440039





000
SAUS45 KGGW 031749
MTRJDN
METAR KJDN 031748Z AUTO 05004KT 24/04 A3010 RMK AO1 SLP190 T02390039
10239 20067 50000





000
SAUS45 KGGW 031649
MTRJDN
METAR KJDN 031648Z AUTO 00000KT 22/08 A3011 RMK AO1 SLP194 T02170078





000
SAUS45 KGGW 031649
MTRJDN
METAR KJDN 031648Z AUTO 00000KT 22/08 A3011 RMK AO1 SLP194 T02170078





000
SAUS45 KGGW 031549
MTRJDN
METAR KJDN 031548Z AUTO 00000KT 19/08 A3010 RMK AO1 SLP194 T01890083





000
SAUS45 KGGW 031549
MTRJDN
METAR KJDN 031548Z AUTO 00000KT 19/08 A3010 RMK AO1 SLP194 T01890083





000
SAUS45 KGGW 031449
MTRJDN
METAR KJDN 031448Z AUTO 29004KT 16/08 A3010 RMK AO1 SLP193 T01610078
51007





000
SAUS45 KGGW 031349
MTRJDN
METAR KJDN 031348Z AUTO 28005KT 12/07 A3010 RMK AO1 SLP192 T01220067





000
SAUS45 KGGW 031249
MTRJDN
METAR KJDN 031248Z AUTO 30005KT 08/05 A3009 RMK AO1 SLP189 T00830050





000
SAUS45 KGGW 031149
MTRJDN
METAR KJDN 031148Z AUTO 29007KT 07/04 A3008 RMK AO1 SLP187 T00670044
10094 20067 53008





000
SAUS45 KGGW 031149
MTRJDN
METAR KJDN 031148Z AUTO 29007KT 07/04 A3008 RMK AO1 SLP187 T00670044
10094 20067 53008





000
SAUS45 KGGW 031049
MTRJDN
METAR KJDN 031048Z AUTO 28007KT 07/04 A3007 RMK AO1 SLP182 T00720044





000
SAUS45 KGGW 031049
MTRJDN
METAR KJDN 031048Z AUTO 28007KT 07/04 A3007 RMK AO1 SLP182 T00720044





000
SAUS45 KGGW 030949
MTRJDN
METAR KJDN 030948Z AUTO 28008KT 07/05 A3006 RMK AO1 SLP179 T00720050





000
SAUS45 KGGW 030849
MTRJDN
METAR KJDN 030848Z AUTO 28007KT 08/05 A3005 RMK AO1 SLP177 T00780050
58000





000
SAUS45 KGGW 030749
MTRJDN
METAR KJDN 030748Z AUTO 28006KT 08/06 A3006 RMK AO1 SLP180 T00780056





000
SAUS45 KGGW 030649
MTRJDN
METAR KJDN 030648Z AUTO 29006KT 08/06 A3006 RMK AO1 SLP178 T00830056
402280011





000
SAUS45 KGGW 030549
MTRJDN
METAR KJDN 030548Z AUTO 29008KT 10/06 A3006 RMK AO1 SLP178 T01000061
10222 20094 50002





000
SAUS45 KGGW 030549
MTRJDN
METAR KJDN 030548Z AUTO 29008KT 10/06 A3006 RMK AO1 SLP178 T01000061
10222 20094 50002





000
SAUS45 KGGW 030449
MTRJDN
METAR KJDN 030448Z AUTO 28007KT 09/06 A3006 RMK AO1 SLP180 T00940061





000
SAUS45 KGGW 030349
MTRJDN
METAR KJDN 030348Z AUTO 27007KT 11/07 A3006 RMK AO1 SLP180 T01110067





000
SAUS45 KGGW 030249
MTRJDN
METAR KJDN 030248Z AUTO 29005KT 13/07 A3005 RMK AO1 SLP178 T01330072
55001





000
SAUS45 KGGW 030149
MTRJDN
METAR KJDN 030148Z AUTO 30007KT 18/07 A3004 RMK AO1 SLP175 T01780067





000
SAUS45 KGGW 030049
MTRJDN
METAR KJDN 030048Z AUTO 30010KT 21/05 A3005 RMK AO1 SLP177 T02110050





000
SAUS45 KGGW 030049
MTRJDN
METAR KJDN 030048Z AUTO 30010KT 21/05 A3005 RMK AO1 SLP177 T02110050





000
SAUS45 KGGW 022349
MTRJDN
METAR KJDN 022348Z AUTO 32012KT 22/04 A3005 RMK AO1 SLP180 T02220044
10228 20194 56009





000
SAUS45 KGGW 022249
MTRJDN
METAR KJDN 022248Z AUTO 35009KT 23/04 A3005 RMK AO1 SLP180 T02280039





000
SAUS45 KGGW 022249
MTRJDN
METAR KJDN 022248Z AUTO 35009KT 23/04 A3005 RMK AO1 SLP180 T02280039





000
SAUS45 KGGW 022149
MTRJDN
METAR KJDN 022148Z AUTO 35006KT 22/04 A3006 RMK AO1 SLP183 T02220039





000
SAUS45 KGGW 022049
MTRJDN
METAR KJDN 022048Z AUTO 33013G19KT 22/03 A3008 RMK AO1 SLP190
T02170033 56012





000
SAUS45 KGGW 021949
MTRJDN
METAR KJDN 021948Z AUTO 34009G19KT 21/03 A3009 RMK AO1 SLP194
T02110033





000
SAUS45 KGGW 021849
MTRJDN
METAR KJDN 021848Z AUTO 34008G17KT 20/03 A3011 RMK AO1 SLP198
T02000028





000
SAUS45 KGGW 021750
MTRJDN
METAR KJDN 021748Z AUTO 33013G18KT 19/03 A3012 RMK AO1 SLP204
T01940028 10200 20022 58004





000
SAUS45 KGGW 021649
MTRJDN
METAR KJDN 021648Z AUTO 32010KT 19/02 A3012 RMK AO1 SLP204 T01890022





000
SAUS45 KGGW 021549
MTRJDN
METAR KJDN 021548Z AUTO 30011KT 17/04 A3014 RMK AO1 SLP210 T01670039





000
SAUS45 KGGW 021449
MTRJDN
METAR KJDN 021448Z AUTO 29007KT 13/06 A3013 RMK AO1 SLP211 T01330056
57003





000
SAUS45 KGGW 021349
MTRJDN
METAR KJDN 021348Z AUTO 29005KT 08/04 A3014 RMK AO1 SLP210 T00830039





000
SAUS45 KGGW 021249
MTRJDN
METAR KJDN 021248Z AUTO 29004KT 05/03 A3014 RMK AO1 SLP214 T00500028





000
SAUS45 KGGW 021149
MTRJDN
METAR KJDN 021148Z AUTO 29006KT 02/01 A3014 RMK AO1 SLP218 T00220011
10056 20011 56006





000
SAUS45 KGGW 021149
MTRJDN
METAR KJDN 021148Z AUTO 29006KT 02/01 A3014 RMK AO1 SLP218 T00220011
10056 20011 56006





000
SAUS45 KGGW 021049
MTRJDN
METAR KJDN 021048Z AUTO 29004KT 02/01 A3015 RMK AO1 SLP218 T00220011





000
SAUS45 KGGW 020949
MTRJDN
METAR KJDN 020948Z AUTO 28005KT 03/02 A3015 RMK AO1 SLP219 T00330017





000
SAUS45 KGGW 020949
MTRJDN
METAR KJDN 020948Z AUTO 28005KT 03/02 A3015 RMK AO1 SLP219 T00330017





000
SAUS45 KGGW 020849
MTRJDN
METAR KJDN 020848Z AUTO 27005KT 03/02 A3016 RMK AO1 SLP223 T00330022
58007





000
SAUS45 KGGW 020749
MTRJDN
METAR KJDN 020748Z AUTO 27005KT 03/02 A3017 RMK AO1 SLP227 T00330022





000
SAUS45 KGGW 020649
MTRJDN
METAR KJDN 020648Z AUTO 29006KT 05/03 A3018 RMK AO1 SLP229 T00500028
401781017





000
SAUS45 KGGW 020549
MTRJDN
METAR KJDN 020548Z AUTO 28004KT 05/03 A3018 RMK AO1 SLP230 T00500028
10178 20039 58001





000
SAUS45 KGGW 020449
MTRJDN
METAR KJDN 020448Z AUTO 20004KT 06/03 A3019 RMK AO1 SLP234 T00610033





000
SAUS45 KGGW 020349
MTRJDN
METAR KJDN 020348Z AUTO 00000KT 08/03 A3018 RMK AO1 SLP231 T00780028





000
SAUS45 KGGW 020249
MTRJDN
METAR KJDN 020248Z AUTO 00000KT 10/03 A3019 RMK AO1 SLP234 T01000033
56009





000
SAUS45 KGGW 020149
MTRJDN
METAR KJDN 020148Z AUTO 00000KT 16/M01 A3019 RMK AO1 SLP234
T01561006





000
SAUS45 KGGW 020149
MTRJDN
METAR KJDN 020148Z AUTO 00000KT 16/M01 A3019 RMK AO1 SLP234
T01561006





000
SAUS45 KGGW 020049
MTRJDN
METAR KJDN 020048Z AUTO 24003KT 17/M02 A3020 RMK AO1 SLP236
T01721022





000
SAUS45 KGGW 012349
MTRJDN
METAR KJDN 012348Z AUTO 00000KT 17/M03 A3022 RMK AO1 SLP246
T01671028 10178 20150 56013





000
SAUS45 KGGW 012349
MTRJDN
METAR KJDN 012348Z AUTO 00000KT 17/M03 A3022 RMK AO1 SLP246
T01671028 10178 20150 56013





    US Dept of Commerce
    National Oceanic and Atmospheric Administration
    National Weather Service
    1325 East West Highway
    Silver Spring, MD 20910
    Page Author: NWS Internet Services Team
Disclaimer
Information Quality
Credits
Glossary
Privacy Policy
Freedom of Information Act (FOIA)
About Us
Career Opportunities